sensor_id;sensor_type;location;lat;lon;timestamp;pressure;altitude;pressure_sealevel;temperature;humidity
30516;BME280;17297;54.022;10.760;2023-07-31T00:01:10;100751.13;;;18.68;66.76
30516;BME280;17297;54.022;10.760;2023-07-31T00:03:36;100750.03;;;18.69;66.78
30516;BME280;17297;54.022;10.760;2023-07-31T00:06:01;100745.66;;;18.68;66.83
30516;BME280;17297;54.022;10.760;2023-07-31T00:08:26;100751.94;;;18.68;67.03
30516;BME280;17297;54.022;10.760;2023-07-31T00:10:52;100740.22;;;18.68;66.88
30516;BME280;17297;54.022;10.760;2023-07-31T00:13:18;100741.03;;;18.68;66.85
30516;BME280;17297;54.022;10.760;2023-07-31T00:15:43;100742.72;;;18.69;67.11
30516;BME280;17297;54.022;10.760;2023-07-31T00:18:08;100739.13;;;18.69;66.88
30516;BME280;17297;54.022;10.760;2023-07-31T00:20:34;100733.44;;;18.70;67.01
30516;BME280;17297;54.022;10.760;2023-07-31T00:22:59;100729.09;;;18.69;66.89
30516;BME280;17297;54.022;10.760;2023-07-31T00:25:24;100722.78;;;18.69;67.13
30516;BME280;17297;54.022;10.760;2023-07-31T00:27:50;100723.03;;;18.67;67.23
30516;BME280;17297;54.022;10.760;2023-07-31T00:30:15;100726.00;;;18.66;66.99
30516;BME280;17297;54.022;10.760;2023-07-31T00:32:41;100715.09;;;18.66;67.02
30516;BME280;17297;54.022;10.760;2023-07-31T00:35:06;100721.09;;;18.63;67.01
30516;BME280;17297;54.022;10.760;2023-07-31T00:37:32;100722.13;;;18.62;67.36
30516;BME280;17297;54.022;10.760;2023-07-31T00:39:57;100716.13;;;18.60;67.21
30516;BME280;17297;54.022;10.760;2023-07-31T00:42:24;100711.72;;;18.59;67.17
30516;BME280;17297;54.022;10.760;2023-07-31T00:44:50;100709.00;;;18.59;67.43
30516;BME280;17297;54.022;10.760;2023-07-31T00:47:15;100702.72;;;18.58;67.46
30516;BME280;17297;54.022;10.760;2023-07-31T00:49:41;100710.91;;;18.58;67.56
30516;BME280;17297;54.022;10.760;2023-07-31T00:52:07;100700.00;;;18.58;67.63
30516;BME280;17297;54.022;10.760;2023-07-31T00:54:33;100700.00;;;18.58;67.63
30516;BME280;17297;54.022;10.760;2023-07-31T00:56:59;100702.50;;;18.60;67.85
30516;BME280;17297;54.022;10.760;2023-07-31T00:59:24;100711.22;;;18.62;67.61
30516;BME280;17297;54.022;10.760;2023-07-31T01:01:50;100724.63;;;18.63;67.68
30516;BME280;17297;54.022;10.760;2023-07-31T01:04:16;100711.56;;;18.65;67.59
30516;BME280;17297;54.022;10.760;2023-07-31T01:07:09;100709.09;;;18.64;67.99
30516;BME280;17297;54.022;10.760;2023-07-31T01:12:27;100694.66;;;18.63;67.83
30516;BME280;17297;54.022;10.760;2023-07-31T01:15:05;100714.78;;;18.62;67.90
30516;BME280;17297;54.022;10.760;2023-07-31T01:17:31;100706.38;;;18.64;67.95
30516;BME280;17297;54.022;10.760;2023-07-31T01:20:01;100697.38;;;18.63;67.98
30516;BME280;17297;54.022;10.760;2023-07-31T01:22:58;100699.84;;;18.65;67.92
30516;BME280;17297;54.022;10.760;2023-07-31T01:28:19;100695.22;;;18.65;68.11
30516;BME280;17297;54.022;10.760;2023-07-31T01:30:48;100696.03;;;18.66;68.19
30516;BME280;17297;54.022;10.760;2023-07-31T01:33:17;100693.06;;;18.67;68.00
30516;BME280;17297;54.022;10.760;2023-07-31T01:35:48;100694.72;;;18.68;68.28
30516;BME280;17297;54.022;10.760;2023-07-31T01:38:14;100691.75;;;18.70;68.08
30516;BME280;17297;54.022;10.760;2023-07-31T01:40:43;100687.94;;;18.71;68.31
30516;BME280;17297;54.022;10.760;2023-07-31T01:43:09;100691.75;;;18.70;68.10
30516;BME280;17297;54.022;10.760;2023-07-31T01:45:34;100689.84;;;18.70;68.04
30516;BME280;17297;54.022;10.760;2023-07-31T01:48:00;100683.59;;;18.70;68.31
30516;BME280;17297;54.022;10.760;2023-07-31T01:50:25;100690.69;;;18.71;68.01
30516;BME280;17297;54.022;10.760;2023-07-31T01:52:50;100691.75;;;18.70;68.22
30516;BME280;17297;54.022;10.760;2023-07-31T01:55:16;100681.91;;;18.69;68.31
30516;BME280;17297;54.022;10.760;2023-07-31T01:57:42;100677.31;;;18.69;68.29
30516;BME280;17297;54.022;10.760;2023-07-31T02:00:07;100672.69;;;18.70;68.55
30516;BME280;17297;54.022;10.760;2023-07-31T02:02:38;100669.16;;;18.69;68.54
30516;BME280;17297;54.022;10.760;2023-07-31T02:05:04;100673.50;;;18.70;68.55
30516;BME280;17297;54.022;10.760;2023-07-31T02:07:29;100669.16;;;18.69;68.61
30516;BME280;17297;54.022;10.760;2023-07-31T02:09:55;100662.84;;;18.69;68.44
30516;BME280;17297;54.022;10.760;2023-07-31T02:12:21;100663.94;;;18.68;68.61
30516;BME280;17297;54.022;10.760;2023-07-31T02:14:46;100652.22;;;18.67;68.62
30516;BME280;17297;54.022;10.760;2023-07-31T02:17:11;100654.13;;;18.67;68.39
30516;BME280;17297;54.022;10.760;2023-07-31T02:19:36;100645.13;;;18.66;68.56
30516;BME280;17297;54.022;10.760;2023-07-31T02:22:02;100649.50;;;18.67;68.64
30516;BME280;17297;54.022;10.760;2023-07-31T02:24:27;100644.03;;;18.67;68.81
30516;BME280;17297;54.022;10.760;2023-07-31T02:26:53;100642.13;;;18.68;68.56
30516;BME280;17297;54.022;10.760;2023-07-31T02:29:18;100633.97;;;18.68;68.80
30516;BME280;17297;54.022;10.760;2023-07-31T02:31:44;100636.69;;;18.68;68.78
30516;BME280;17297;54.022;10.760;2023-07-31T02:34:09;100630.41;;;18.67;68.54
30516;BME280;17297;54.022;10.760;2023-07-31T02:36:35;100622.47;;;18.66;68.70
30516;BME280;17297;54.022;10.760;2023-07-31T02:39:00;100624.38;;;18.65;68.82
30516;BME280;17297;54.022;10.760;2023-07-31T02:41:25;100622.16;;;18.62;68.58
30516;BME280;17297;54.022;10.760;2023-07-31T02:43:51;100604.16;;;18.61;68.65
30516;BME280;17297;54.022;10.760;2023-07-31T02:46:16;100615.34;;;18.60;68.64
30516;BME280;17297;54.022;10.760;2023-07-31T02:48:41;100601.72;;;18.60;68.61
30516;BME280;17297;54.022;10.760;2023-07-31T02:51:07;100609.03;;;18.59;68.67
30516;BME280;17297;54.022;10.760;2023-07-31T02:53:32;100608.22;;;18.59;68.61
30516;BME280;17297;54.022;10.760;2023-07-31T02:55:57;100600.84;;;18.59;68.79
30516;BME280;17297;54.022;10.760;2023-07-31T02:58:24;100593.78;;;18.58;68.84
30516;BME280;17297;54.022;10.760;2023-07-31T03:00:49;100592.38;;;18.56;68.59
30516;BME280;17297;54.022;10.760;2023-07-31T03:03:14;100594.28;;;18.55;68.89
30516;BME280;17297;54.022;10.760;2023-07-31T03:05:40;100591.81;;;18.54;68.78
30516;BME280;17297;54.022;10.760;2023-07-31T03:08:05;100594.53;;;18.54;68.85
30516;BME280;17297;54.022;10.760;2023-07-31T03:10:30;100598.31;;;18.53;68.94
30516;BME280;17297;54.022;10.760;2023-07-31T03:12:57;100586.59;;;18.52;69.04
30516;BME280;17297;54.022;10.760;2023-07-31T03:15:22;100596.66;;;18.52;69.12
30516;BME280;17297;54.022;10.760;2023-07-31T03:17:48;100588.50;;;18.52;69.18
30516;BME280;17297;54.022;10.760;2023-07-31T03:20:13;100583.88;;;18.52;68.98
30516;BME280;17297;54.022;10.760;2023-07-31T03:22:39;100576.78;;;18.51;69.01
30516;BME280;17297;54.022;10.760;2023-07-31T03:25:04;100576.78;;;18.51;69.15
30516;BME280;17297;54.022;10.760;2023-07-31T03:27:30;100583.06;;;18.52;68.93
30516;BME280;17297;54.022;10.760;2023-07-31T03:29:56;100578.69;;;18.51;69.02
30516;BME280;17297;54.022;10.760;2023-07-31T03:32:22;100582.22;;;18.51;69.11
30516;BME280;17297;54.022;10.760;2023-07-31T03:34:47;100574.88;;;18.52;69.03
30516;BME280;17297;54.022;10.760;2023-07-31T03:37:12;100574.88;;;18.52;68.98
30516;BME280;17297;54.022;10.760;2023-07-31T03:39:38;100565.06;;;18.51;69.32
30516;BME280;17297;54.022;10.760;2023-07-31T03:42:03;100562.59;;;18.49;69.15
30516;BME280;17297;54.022;10.760;2023-07-31T03:44:29;100559.84;;;18.49;69.18
30516;BME280;17297;54.022;10.760;2023-07-31T03:46:54;100550.06;;;18.48;69.24
30516;BME280;17297;54.022;10.760;2023-07-31T03:49:20;100548.16;;;18.49;69.19
30516;BME280;17297;54.022;10.760;2023-07-31T03:51:47;100550.59;;;18.50;69.25
30516;BME280;17297;54.022;10.760;2023-07-31T03:54:12;100545.16;;;18.50;69.26
30516;BME280;17297;54.022;10.760;2023-07-31T03:56:38;100551.19;;;18.52;69.22
30516;BME280;17297;54.022;10.760;2023-07-31T03:59:03;100548.47;;;18.52;69.21
30516;BME280;17297;54.022;10.760;2023-07-31T04:01:30;100547.38;;;18.53;69.24
30516;BME280;17297;54.022;10.760;2023-07-31T04:03:55;100549.06;;;18.54;69.50
30516;BME280;17297;54.022;10.760;2023-07-31T04:06:21;100547.16;;;18.55;69.29
30516;BME280;17297;54.022;10.760;2023-07-31T04:08:46;100545.00;;;18.57;69.33
30516;BME280;17297;54.022;10.760;2023-07-31T04:11:11;100554.56;;;18.59;69.56
30516;BME280;17297;54.022;10.760;2023-07-31T04:13:38;100554.56;;;18.59;69.39
30516;BME280;17297;54.022;10.760;2023-07-31T04:16:04;100552.69;;;18.60;69.54
30516;BME280;17297;54.022;10.760;2023-07-31T04:18:29;100555.41;;;18.60;69.39
30516;BME280;17297;54.022;10.760;2023-07-31T04:20:57;100544.25;;;18.61;69.37
30516;BME280;17297;54.022;10.760;2023-07-31T04:23:26;100540.69;;;18.61;69.49
30516;BME280;17297;54.022;10.760;2023-07-31T04:25:52;100537.16;;;18.60;69.63
30516;BME280;17297;54.022;10.760;2023-07-31T04:28:17;100539.88;;;18.60;69.53
30516;BME280;17297;54.022;10.760;2023-07-31T04:30:42;100539.06;;;18.60;69.30
30516;BME280;17297;54.022;10.760;2023-07-31T04:33:08;100532.75;;;18.59;69.64
30516;BME280;17297;54.022;10.760;2023-07-31T04:35:33;100541.50;;;18.61;69.52
30516;BME280;17297;54.022;10.760;2023-07-31T04:37:59;100534.16;;;18.62;69.61
30516;BME280;17297;54.022;10.760;2023-07-31T04:40:24;100533.59;;;18.60;69.64
30516;BME280;17297;54.022;10.760;2023-07-31T04:42:49;100522.44;;;18.61;69.46
30516;BME280;17297;54.022;10.760;2023-07-31T04:45:15;100533.09;;;18.63;69.84
30516;BME280;17297;54.022;10.760;2023-07-31T04:47:40;100524.94;;;18.63;69.76
30516;BME280;17297;54.022;10.760;2023-07-31T04:50:06;100532.84;;;18.64;69.76
30516;BME280;17297;54.022;10.760;2023-07-31T04:52:31;100529.03;;;18.65;69.66
30516;BME280;17297;54.022;10.760;2023-07-31T04:54:57;100523.91;;;18.69;69.83
30516;BME280;17297;54.022;10.760;2023-07-31T04:57:22;100521.75;;;18.71;69.64
30516;BME280;17297;54.022;10.760;2023-07-31T04:59:47;100518.81;;;18.73;69.66
30516;BME280;17297;54.022;10.760;2023-07-31T05:02:13;100516.41;;;18.76;69.91
30516;BME280;17297;54.022;10.760;2023-07-31T05:04:38;100516.16;;;18.78;69.84
30516;BME280;17297;54.022;10.760;2023-07-31T05:07:04;100514.00;;;18.80;69.98
30516;BME280;17297;54.022;10.760;2023-07-31T05:09:29;100515.63;;;18.81;69.96
30516;BME280;17297;54.022;10.760;2023-07-31T05:11:55;100519.75;;;18.83;69.68
30516;BME280;17297;54.022;10.760;2023-07-31T05:14:20;100514.09;;;18.85;69.66
30516;BME280;17297;54.022;10.760;2023-07-31T05:16:45;100517.63;;;18.85;69.72
30516;BME280;17297;54.022;10.760;2023-07-31T05:19:11;100506.72;;;18.85;69.94
30516;BME280;17297;54.022;10.760;2023-07-31T05:21:36;100515.72;;;18.86;69.76
30516;BME280;17297;54.022;10.760;2023-07-31T05:24:02;100516.81;;;18.85;69.88
30516;BME280;17297;54.022;10.760;2023-07-31T05:26:27;100511.09;;;18.86;70.10
30516;BME280;17297;54.022;10.760;2023-07-31T05:28:53;100513.00;;;18.86;70.29
30516;BME280;17297;54.022;10.760;2023-07-31T05:31:18;100514.63;;;18.87;70.09
30516;BME280;17297;54.022;10.760;2023-07-31T05:33:43;100510.84;;;18.88;70.06
30516;BME280;17297;54.022;10.760;2023-07-31T05:36:09;100502.41;;;18.89;69.89
30516;BME280;17297;54.022;10.760;2023-07-31T05:38:34;100502.41;;;18.89;69.94
30516;BME280;17297;54.022;10.760;2023-07-31T05:40:59;100500.50;;;18.90;70.01
30516;BME280;17297;54.022;10.760;2023-07-31T05:43:25;100504.03;;;18.90;70.32
30516;BME280;17297;54.022;10.760;2023-07-31T05:45:51;100495.88;;;18.90;70.25
30516;BME280;17297;54.022;10.760;2023-07-31T05:48:16;100490.41;;;18.90;70.09
30516;BME280;17297;54.022;10.760;2023-07-31T05:50:43;100483.91;;;18.91;70.42
30516;BME280;17297;54.022;10.760;2023-07-31T05:53:08;100488.28;;;18.92;70.09
30516;BME280;17297;54.022;10.760;2023-07-31T05:55:33;100481.50;;;18.95;70.17
30516;BME280;17297;54.022;10.760;2023-07-31T05:57:59;100490.47;;;18.96;70.13
30516;BME280;17297;54.022;10.760;2023-07-31T06:00:24;100487.75;;;18.96;70.44
30516;BME280;17297;54.022;10.760;2023-07-31T06:02:53;100483.94;;;18.97;70.26
30516;BME280;17297;54.022;10.760;2023-07-31T06:05:18;100481.22;;;18.97;70.59
30516;BME280;17297;54.022;10.760;2023-07-31T06:07:44;100480.97;;;18.98;70.62
30516;BME280;17297;54.022;10.760;2023-07-31T06:10:09;100470.91;;;18.99;70.26
30516;BME280;17297;54.022;10.760;2023-07-31T06:12:35;100475.25;;;19.00;70.42
30516;BME280;17297;54.022;10.760;2023-07-31T06:15:02;100477.97;;;19.00;70.59
30516;BME280;17297;54.022;10.760;2023-07-31T06:17:28;100480.72;;;19.00;70.68
30516;BME280;17297;54.022;10.760;2023-07-31T06:19:54;100483.19;;;19.01;70.55
30516;BME280;17297;54.022;10.760;2023-07-31T06:22:19;100488.38;;;19.03;70.58
30516;BME280;17297;54.022;10.760;2023-07-31T06:24:44;100478.28;;;19.03;70.57
30516;BME280;17297;54.022;10.760;2023-07-31T06:27:10;100479.69;;;19.06;70.53
30516;BME280;17297;54.022;10.760;2023-07-31T06:29:36;100473.19;;;19.07;70.60
30516;BME280;17297;54.022;10.760;2023-07-31T06:32:02;100467.47;;;19.08;70.89
30516;BME280;17297;54.022;10.760;2023-07-31T06:34:27;100473.50;;;19.10;70.83
30516;BME280;17297;54.022;10.760;2023-07-31T06:36:52;100479.50;;;19.12;70.70
30516;BME280;17297;54.022;10.760;2023-07-31T06:39:18;100473.78;;;19.14;70.82
30516;BME280;17297;54.022;10.760;2023-07-31T06:41:43;100471.88;;;19.14;70.91
30516;BME280;17297;54.022;10.760;2023-07-31T06:44:10;100466.19;;;19.16;71.00
30516;BME280;17297;54.022;10.760;2023-07-31T06:46:35;100463.19;;;19.18;70.86
30516;BME280;17297;54.022;10.760;2023-07-31T06:49:00;100459.38;;;19.19;71.16
30516;BME280;17297;54.022;10.760;2023-07-31T06:51:26;100466.22;;;19.21;70.92
30516;BME280;17297;54.022;10.760;2023-07-31T06:53:51;100456.47;;;19.25;71.08
30516;BME280;17297;54.022;10.760;2023-07-31T06:56:16;100452.38;;;19.28;71.06
30516;BME280;17297;54.022;10.760;2023-07-31T06:58:42;100445.59;;;19.30;71.13
30516;BME280;17297;54.022;10.760;2023-07-31T07:01:07;100442.34;;;19.33;71.33
30516;BME280;17297;54.022;10.760;2023-07-31T07:03:32;100445.38;;;19.37;71.10
30516;BME280;17297;54.022;10.760;2023-07-31T07:05:58;100438.59;;;19.39;71.22
30516;BME280;17297;54.022;10.760;2023-07-31T07:08:24;100450.06;;;19.42;71.07
30516;BME280;17297;54.022;10.760;2023-07-31T07:10:49;100446.00;;;19.44;71.00
30516;BME280;17297;54.022;10.760;2023-07-31T07:13:15;100438.38;;;19.46;71.16
30516;BME280;17297;54.022;10.760;2023-07-31T07:15:40;100440.03;;;19.47;71.06
30516;BME280;17297;54.022;10.760;2023-07-31T07:18:06;100449.84;;;19.48;71.03
30516;BME280;17297;54.022;10.760;2023-07-31T07:20:31;100443.31;;;19.49;71.32
30516;BME280;17297;54.022;10.760;2023-07-31T07:22:57;100447.44;;;19.52;71.13
30516;BME280;17297;54.022;10.760;2023-07-31T07:25:22;100439.00;;;19.53;71.28
30516;BME280;17297;54.022;10.760;2023-07-31T07:27:47;100444.19;;;19.55;71.37
30516;BME280;17297;54.022;10.760;2023-07-31T07:30:13;100449.41;;;19.56;71.28
30516;BME280;17297;54.022;10.760;2023-07-31T07:32:39;100452.94;;;19.57;71.20
30516;BME280;17297;54.022;10.760;2023-07-31T07:35:05;100453.47;;;19.59;71.08
30516;BME280;17297;54.022;10.760;2023-07-31T07:37:30;100452.94;;;19.57;71.27
30516;BME280;17297;54.022;10.760;2023-07-31T07:39:56;100451.03;;;19.57;71.21
30516;BME280;17297;54.022;10.760;2023-07-31T07:42:22;100450.47;;;19.55;71.35
30516;BME280;17297;54.022;10.760;2023-07-31T07:44:49;100453.19;;;19.55;71.42
30516;BME280;17297;54.022;10.760;2023-07-31T07:47:14;100460.56;;;19.55;71.13
30516;BME280;17297;54.022;10.760;2023-07-31T07:49:40;100457.00;;;19.54;71.37
30516;BME280;17297;54.022;10.760;2023-07-31T07:52:05;100459.72;;;19.54;71.19
30516;BME280;17297;54.022;10.760;2023-07-31T07:54:31;100454.53;;;19.53;71.22
30516;BME280;17297;54.022;10.760;2023-07-31T07:56:56;100447.44;;;19.52;71.33
30516;BME280;17297;54.022;10.760;2023-07-31T07:59:22;100454.78;;;19.51;71.45
30516;BME280;17297;54.022;10.760;2023-07-31T08:01:48;100455.88;;;19.50;71.29
30516;BME280;17297;54.022;10.760;2023-07-31T08:04:13;100449.59;;;19.50;71.23
30516;BME280;17297;54.022;10.760;2023-07-31T08:06:39;100450.44;;;19.50;71.32
30516;BME280;17297;54.022;10.760;2023-07-31T08:09:04;100451.25;;;19.51;71.10
30516;BME280;17297;54.022;10.760;2023-07-31T08:11:33;100437.63;;;19.51;71.39
30516;BME280;17297;54.022;10.760;2023-07-31T08:13:58;100441.16;;;19.51;71.19
30516;BME280;17297;54.022;10.760;2023-07-31T08:16:23;100439.25;;;19.52;71.49
30516;BME280;17297;54.022;10.760;2023-07-31T08:18:49;100429.97;;;19.53;71.65
30516;BME280;17297;54.022;10.760;2023-07-31T08:21:14;100429.97;;;19.53;71.31
30516;BME280;17297;54.022;10.760;2023-07-31T08:23:40;100418.25;;;19.52;71.44
30516;BME280;17297;54.022;10.760;2023-07-31T08:26:05;100416.31;;;19.53;71.53
30516;BME280;17297;54.022;10.760;2023-07-31T08:28:31;100419.91;;;19.53;71.69
30516;BME280;17297;54.022;10.760;2023-07-31T08:30:56;100414.44;;;19.53;71.58
30516;BME280;17297;54.022;10.760;2023-07-31T08:33:21;100415.00;;;19.55;71.35
30516;BME280;17297;54.022;10.760;2023-07-31T08:35:47;100416.91;;;19.55;71.48
30516;BME280;17297;54.022;10.760;2023-07-31T08:38:13;100403.84;;;19.57;71.63
30516;BME280;17297;54.022;10.760;2023-07-31T08:40:38;100403.56;;;19.58;71.79
30516;BME280;17297;54.022;10.760;2023-07-31T08:43:04;100400.31;;;19.61;71.70
30516;BME280;17297;54.022;10.760;2023-07-31T08:45:30;100405.53;;;19.63;71.97
30516;BME280;17297;54.022;10.760;2023-07-31T08:47:56;100405.28;;;19.65;71.82
30516;BME280;17297;54.022;10.760;2023-07-31T08:50:24;100410.50;;;19.66;71.63
30516;BME280;17297;54.022;10.760;2023-07-31T08:52:51;100408.56;;;19.67;71.84
30516;BME280;17297;54.022;10.760;2023-07-31T08:55:17;100416.75;;;19.67;71.87
30516;BME280;17297;54.022;10.760;2023-07-31T08:57:43;100424.66;;;19.68;71.65
30516;BME280;17297;54.022;10.760;2023-07-31T09:00:10;100418.41;;;19.68;71.66
30516;BME280;17297;54.022;10.760;2023-07-31T09:02:45;100414.03;;;19.67;71.95
30516;BME280;17297;54.022;10.760;2023-07-31T09:05:10;100412.13;;;19.67;71.83
30516;BME280;17297;54.022;10.760;2023-07-31T09:07:36;100415.09;;;19.66;71.84
30516;BME280;17297;54.022;10.760;2023-07-31T09:10:03;100414.28;;;19.65;71.80
30516;BME280;17297;54.022;10.760;2023-07-31T09:12:29;100417.81;;;19.66;71.99
30516;BME280;17297;54.022;10.760;2023-07-31T09:14:55;100411.56;;;19.65;71.71
30516;BME280;17297;54.022;10.760;2023-07-31T09:17:34;100407.19;;;19.64;71.91
30516;BME280;17297;54.022;10.760;2023-07-31T09:20:17;100426.28;;;19.64;71.80
30516;BME280;17297;54.022;10.760;2023-07-31T09:22:43;100430.66;;;19.65;71.98
30516;BME280;17297;54.022;10.760;2023-07-31T09:25:20;100432.56;;;19.65;72.28
30516;BME280;17297;54.022;10.760;2023-07-31T09:27:53;100433.38;;;19.65;72.13
30516;BME280;17297;54.022;10.760;2023-07-31T09:30:19;100426.00;;;19.66;71.98
30516;BME280;17297;54.022;10.760;2023-07-31T09:32:46;100424.94;;;19.67;72.05
30516;BME280;17297;54.022;10.760;2023-07-31T09:35:14;100421.41;;;19.66;71.99
30516;BME280;17297;54.022;10.760;2023-07-31T09:37:43;100413.22;;;19.66;72.03
30516;BME280;17297;54.022;10.760;2023-07-31T09:40:24;100419.72;;;19.65;72.05
30516;BME280;17297;54.022;10.760;2023-07-31T09:42:50;100416.75;;;19.67;71.84
30516;BME280;17297;54.022;10.760;2023-07-31T09:45:18;100407.75;;;19.66;72.24
30516;BME280;17297;54.022;10.760;2023-07-31T09:47:47;100406.91;;;19.66;72.28
30516;BME280;17297;54.022;10.760;2023-07-31T09:50:14;100408.56;;;19.67;71.96
30516;BME280;17297;54.022;10.760;2023-07-31T09:52:39;100406.38;;;19.69;72.03
30516;BME280;17297;54.022;10.760;2023-07-31T09:55:05;100406.97;;;19.71;72.24
30516;BME280;17297;54.022;10.760;2023-07-31T09:57:31;100408.34;;;19.73;72.03
30516;BME280;17297;54.022;10.760;2023-07-31T09:59:58;100409.75;;;19.76;72.39
30516;BME280;17297;54.022;10.760;2023-07-31T10:02:24;100395.28;;;19.75;72.46
30516;BME280;17297;54.022;10.760;2023-07-31T10:04:51;100393.09;;;19.77;72.52
30516;BME280;17297;54.022;10.760;2023-07-31T10:07:20;100384.91;;;19.77;72.38
30516;BME280;17297;54.022;10.760;2023-07-31T10:09:48;100383.84;;;19.78;72.37
30516;BME280;17297;54.022;10.760;2023-07-31T10:12:17;100385.72;;;19.78;72.22
30516;BME280;17297;54.022;10.760;2023-07-31T10:14:44;100383.84;;;19.78;72.12
30516;BME280;17297;54.022;10.760;2023-07-31T10:17:10;100367.47;;;19.78;72.28
30516;BME280;17297;54.022;10.760;2023-07-31T10:19:36;100366.63;;;19.78;72.54
30516;BME280;17297;54.022;10.760;2023-07-31T10:22:03;100356.53;;;19.78;72.52
30516;BME280;17297;54.022;10.760;2023-07-31T10:24:28;100351.63;;;19.80;72.54
30516;BME280;17297;54.022;10.760;2023-07-31T10:26:57;100349.47;;;19.82;72.70
30516;BME280;17297;54.022;10.760;2023-07-31T10:29:24;100341.56;;;19.86;72.60
30516;BME280;17297;54.022;10.760;2023-07-31T10:31:50;100356.84;;;19.87;72.54
30516;BME280;17297;54.022;10.760;2023-07-31T10:34:16;100366.69;;;19.88;72.49
30516;BME280;17297;54.022;10.760;2023-07-31T10:36:41;100371.88;;;19.90;72.81
30516;BME280;17297;54.022;10.760;2023-07-31T10:39:33;100369.97;;;19.90;72.53
30516;BME280;17297;54.022;10.760;2023-07-31T10:41:59;100365.06;;;19.92;72.56
30516;BME280;17297;54.022;10.760;2023-07-31T10:44:24;100348.69;;;19.92;72.57
30516;BME280;17297;54.022;10.760;2023-07-31T10:46:54;100341.31;;;19.93;72.44
30516;BME280;17297;54.022;10.760;2023-07-31T10:49:22;100335.31;;;19.91;72.66
30516;BME280;17297;54.022;10.760;2023-07-31T10:51:48;100341.31;;;19.93;72.63
30516;BME280;17297;54.022;10.760;2023-07-31T10:54:14;100329.34;;;19.94;72.78
30516;BME280;17297;54.022;10.760;2023-07-31T10:56:45;100335.88;;;19.93;72.77
30516;BME280;17297;54.022;10.760;2023-07-31T10:59:11;100340.25;;;19.94;72.83
30516;BME280;17297;54.022;10.760;2023-07-31T11:01:54;100352.25;;;19.93;72.90
30516;BME280;17297;54.022;10.760;2023-07-31T11:04:26;100356.63;;;19.94;72.83
30516;BME280;17297;54.022;10.760;2023-07-31T11:06:59;100363.97;;;19.93;72.77
30516;BME280;17297;54.022;10.760;2023-07-31T11:09:28;100358.28;;;19.95;72.90
30516;BME280;17297;54.022;10.760;2023-07-31T11:11:55;100344.63;;;19.95;72.76
30516;BME280;17297;54.022;10.760;2023-07-31T11:14:21;100336.44;;;19.95;72.72
30516;BME280;17297;54.022;10.760;2023-07-31T11:16:49;100329.06;;;19.95;72.96
30516;BME280;17297;54.022;10.760;2023-07-31T11:19:21;100314.31;;;19.96;73.22
30516;BME280;17297;54.022;10.760;2023-07-31T11:21:47;100313.25;;;19.97;72.98
30516;BME280;17297;54.022;10.760;2023-07-31T11:24:13;100314.88;;;19.98;73.20
30516;BME280;17297;54.022;10.760;2023-07-31T11:26:38;100322.53;;;20.01;73.12
30516;BME280;17297;54.022;10.760;2023-07-31T11:29:11;100317.31;;;20.00;73.32
30516;BME280;17297;54.022;10.760;2023-07-31T11:31:42;100320.63;;;20.02;73.14
30516;BME280;17297;54.022;10.760;2023-07-31T11:34:08;100328.56;;;20.03;73.43
30516;BME280;17297;54.022;10.760;2023-07-31T11:36:33;100330.44;;;20.03;73.22
30516;BME280;17297;54.022;10.760;2023-07-31T11:39:06;100313.00;;;20.04;73.55
30516;BME280;17297;54.022;10.760;2023-07-31T11:41:31;100323.38;;;20.07;73.35
30516;BME280;17297;54.022;10.760;2023-07-31T11:43:59;100320.13;;;20.10;73.51
30516;BME280;17297;54.022;10.760;2023-07-31T11:46:25;100317.94;;;20.12;73.18
30516;BME280;17297;54.022;10.760;2023-07-31T11:48:51;100313.31;;;20.13;73.59
30516;BME280;17297;54.022;10.760;2023-07-31T11:51:16;100323.72;;;20.16;73.30
30516;BME280;17297;54.022;10.760;2023-07-31T11:53:49;100319.06;;;20.16;73.69
30516;BME280;17297;54.022;10.760;2023-07-31T11:56:20;100318.78;;;20.18;73.51
30516;BME280;17297;54.022;10.760;2023-07-31T11:58:47;100300.75;;;20.17;73.42
30516;BME280;17297;54.022;10.760;2023-07-31T12:01:14;100300.47;;;20.18;73.29
30516;BME280;17297;54.022;10.760;2023-07-31T12:03:41;100301.88;;;20.21;73.39
30516;BME280;17297;54.022;10.760;2023-07-31T12:06:08;100306.25;;;20.22;73.52
30516;BME280;17297;54.022;10.760;2023-07-31T12:08:33;100310.63;;;20.23;73.31
30516;BME280;17297;54.022;10.760;2023-07-31T12:11:06;100304.34;;;20.22;73.73
30516;BME280;17297;54.022;10.760;2023-07-31T12:13:33;100300.78;;;20.22;73.68
30516;BME280;17297;54.022;10.760;2023-07-31T12:16:00;100293.66;;;20.21;73.27
30516;BME280;17297;54.022;10.760;2023-07-31T12:18:30;100301.03;;;20.20;73.27
30516;BME280;17297;54.022;10.760;2023-07-31T12:21:00;100301.88;;;20.21;73.52
30516;BME280;17297;54.022;10.760;2023-07-31T12:23:28;100298.31;;;20.20;73.67
30516;BME280;17297;54.022;10.760;2023-07-31T12:26:13;100299.41;;;20.19;73.81
30516;BME280;17297;54.022;10.760;2023-07-31T12:28:47;100299.13;;;20.21;73.45
30516;BME280;17297;54.022;10.760;2023-07-31T12:31:13;100304.88;;;20.19;73.59
30516;BME280;17297;54.022;10.760;2023-07-31T12:33:40;100311.16;;;20.20;73.46
30516;BME280;17297;54.022;10.760;2023-07-31T12:36:10;100305.69;;;20.20;73.86
30516;BME280;17297;54.022;10.760;2023-07-31T12:38:36;100307.31;;;20.21;73.52
30516;BME280;17297;54.022;10.760;2023-07-31T12:41:01;100308.97;;;20.22;73.76
30516;BME280;17297;54.022;10.760;2023-07-31T12:43:27;100282.22;;;20.19;73.64